Time;durP1;ratioP1;P1;durP2;ratioP2;P2;SDS_P1;SDS_P2;PMS_P1;PMS_P2;Temp;Humidity;BMP_temperature;BMP_pressure;BME280_temperature;BME280_humidity;BME280_pressure;Samples;Min_cycle;Max_cycle;Signal;HPM_P1;HPM_P2
2021/04/03 00:00:32;;;;;;;25.67;2.90;;;;;;;6.65;60.74;102625.97;5060111;28;20052;-73
2021/04/03 00:03:00;;;;;;;24.15;2.65;;;;;;;6.63;61.35;102626.97;5051929;28;20068;-75
2021/04/03 00:05:27;;;;;;;15.63;1.75;;;;;;;6.56;60.97;102622.97;5053083;28;20611;-75
2021/04/03 00:07:54;;;;;;;17.27;2.30;;;;;;;6.53;60.81;102626.59;5061770;28;20056;-73
2021/04/03 00:10:43;;;;;;;23.38;4.43;;;;;;;6.48;61.41;102623.34;5046302;28;20044;-72
2021/04/03 00:13:09;;;;;;;21.70;2.63;;;;;;;6.48;61.60;102618.97;5043388;28;20941;-73
2021/04/03 00:15:35;;;;;;;13.35;2.15;;;;;;;6.45;61.35;102632.16;5055670;28;20706;-73
2021/04/03 00:18:01;;;;;;;22.70;2.75;;;;;;;6.46;61.52;102625.19;5057356;28;20774;-73
2021/04/03 00:20:30;;;;;;;17.25;2.95;;;;;;;6.48;61.02;102612.91;5036912;28;20596;-73
2021/04/03 00:22:56;;;;;;;25.55;3.65;;;;;;;6.49;61.68;102612.00;5054455;28;20748;-73
2021/04/03 00:25:23;;;;;;;24.77;3.67;;;;;;;6.42;61.24;102615.84;5058264;28;20060;-73
2021/04/03 00:27:49;;;;;;;20.65;2.53;;;;;;;6.45;61.31;102615.66;5058793;28;20048;-73
2021/04/03 00:30:19;;;;;;;18.35;2.60;;;;;;;6.50;61.66;102617.13;5063170;28;20049;-72
2021/04/03 00:32:47;;;;;;;29.13;3.38;;;;;;;6.52;61.86;102617.06;5054070;28;20078;-72
2021/04/03 00:35:15;;;;;;;21.52;2.38;;;;;;;6.49;61.42;102627.66;5059424;28;20057;-72
2021/04/03 00:37:41;;;;;;;22.97;2.93;;;;;;;6.53;61.19;102621.38;5047853;28;20083;-72
2021/04/03 00:40:17;;;;;;;21.55;2.13;;;;;;;6.52;61.05;102624.88;5065400;28;20643;-73
2021/04/03 00:42:44;;;;;;;15.65;2.75;;;;;;;6.54;61.49;102612.63;5045206;28;20565;-73
2021/04/03 00:45:11;;;;;;;27.58;2.97;;;;;;;6.54;62.17;102618.66;5049445;28;20164;-72
2021/04/03 00:47:38;;;;;;;23.40;2.88;;;;;;;6.56;61.36;102618.59;5059121;28;20125;-73
2021/04/03 00:50:05;;;;;;;25.20;3.55;;;;;;;6.54;61.82;102618.66;5052612;28;20106;-73
2021/04/03 00:52:31;;;;;;;21.42;2.75;;;;;;;6.52;61.49;102617.06;5048188;28;20058;-72
2021/04/03 00:54:57;;;;;;;31.35;3.45;;;;;;;6.49;60.99;102609.41;5057119;28;20581;-73
2021/04/03 00:57:23;;;;;;;22.88;2.85;;;;;;;6.48;61.26;102605.09;5062121;28;20060;-72
2021/04/03 00:59:50;;;;;;;25.25;3.45;;;;;;;6.57;61.14;102609.03;5040061;28;20442;-72
2021/04/03 01:02:16;;;;;;;34.25;3.58;;;;;;;6.57;61.48;102606.44;5045391;28;20056;-72
2021/04/03 01:04:42;;;;;;;16.20;2.22;;;;;;;6.55;61.56;102598.66;5050314;28;20045;-72
2021/04/03 01:07:08;;;;;;;24.48;3.33;;;;;;;6.56;61.82;102589.06;5044037;28;20875;-73
2021/04/03 01:09:39;;;;;;;24.27;3.33;;;;;;;6.48;61.08;102595.50;5053202;28;20129;-73
2021/04/03 01:12:33;;;;;;;29.45;3.67;;;;;;;6.52;61.72;102596.19;5037767;28;20155;-72
2021/04/03 01:15:08;;;;;;;21.45;4.03;;;;;;;6.48;61.49;102592.06;5058148;28;20385;-72
2021/04/03 01:18:01;;;;;;;22.52;3.17;;;;;;;6.58;61.70;102593.28;5056313;28;20133;-73
2021/04/03 01:20:42;;;;;;;25.48;2.65;;;;;;;6.61;61.89;102587.09;5042659;28;20476;-73
2021/04/03 01:23:21;;;;;;;32.38;3.67;;;;;;;6.63;61.48;102595.69;5054514;28;20117;-73
2021/04/03 01:26:19;;;;;;;27.88;2.70;;;;;;;6.62;61.26;102593.97;5062535;28;20476;-73
2021/04/03 01:29:15;;;;;;;36.05;5.10;;;;;;;6.67;61.30;102589.38;5041988;28;20106;-73
2021/04/03 01:31:41;;;;;;;15.50;2.92;;;;;;;6.72;61.65;102588.25;5062180;28;20044;-73
2021/04/03 01:34:18;;;;;;;25.27;3.97;;;;;;;6.67;61.02;102594.59;5057990;28;20074;-73
2021/04/03 01:36:45;;;;;;;36.20;4.25;;;;;;;6.62;61.46;102600.03;5064083;28;20160;-73
2021/04/03 01:39:22;;;;;;;24.58;3.63;;;;;;;6.60;61.27;102590.59;5058150;28;20454;-74
2021/04/03 01:41:52;;;;;;;39.15;4.90;;;;;;;6.62;61.06;102594.81;5061391;28;20084;-73
2021/04/03 01:44:24;;;;;;;28.48;3.67;;;;;;;6.59;61.43;102588.94;5047695;28;20079;-73
2021/04/03 01:46:52;;;;;;;21.65;3.53;;;;;;;6.60;60.88;102598.44;5056307;28;20114;-73
2021/04/03 01:49:22;;;;;;;27.27;3.42;;;;;;;6.60;61.38;102591.44;5056223;28;20053;-73
2021/04/03 01:51:49;;;;;;;28.45;2.90;;;;;;;6.62;61.03;102593.97;5048818;28;20522;-73
2021/04/03 01:54:17;;;;;;;30.05;3.83;;;;;;;6.61;61.08;102595.75;5040169;28;20071;-74
2021/04/03 01:56:47;;;;;;;28.52;3.83;;;;;;;6.61;60.95;102587.09;5052795;28;20129;-74
2021/04/03 01:59:15;;;;;;;26.13;2.95;;;;;;;6.60;61.14;102585.38;5048490;28;20056;-73
2021/04/03 02:01:44;;;;;;;39.30;3.85;;;;;;;6.56;61.30;102600.34;5049967;28;20060;-72
2021/04/03 02:04:13;;;;;;;27.17;4.13;;;;;;;6.48;60.82;102592.91;5042934;28;20103;-73
2021/04/03 02:06:41;;;;;;;23.85;3.33;;;;;;;6.45;61.74;102574.81;5038587;28;20110;-73
2021/04/03 02:09:10;;;;;;;31.55;3.92;;;;;;;6.57;61.58;102593.38;5058983;28;20056;-73
2021/04/03 02:11:37;;;;;;;;;;;;;;;6.52;61.36;102596.19;5063007;28;20064;-73
2021/04/03 02:14:05;;;;;;;23.00;3.03;;;;;;;6.52;61.55;102599.66;5056017;28;19928;-73
2021/04/03 02:16:33;;;;;;;19.15;2.80;;;;;;;6.54;61.84;102594.38;5062739;28;20068;-73
2021/04/03 02:19:08;;;;;;;28.40;4.40;;;;;;;6.56;61.20;102596.91;5052382;28;20076;-73
2021/04/03 02:21:35;;;;;;;19.33;2.58;;;;;;;6.57;61.16;102588.16;5055920;28;20056;-74
2021/04/03 02:24:02;;;;;;;27.17;3.38;;;;;;;6.64;61.54;102597.34;5040857;28;20153;-73
2021/04/03 02:26:32;;;;;;;30.90;3.85;;;;;;;6.69;60.96;102598.81;5054491;28;20072;-73
2021/04/03 02:28:58;;;;;;;26.35;3.53;;;;;;;6.64;60.81;102595.56;5056651;28;20130;-73
2021/04/03 02:31:29;;;;;;;23.45;3.25;;;;;;;6.61;60.27;102598.34;5034691;28;20049;-73
2021/04/03 02:33:55;;;;;;;30.38;2.85;;;;;;;6.59;60.30;102591.53;5044216;28;20499;-74
2021/04/03 02:36:21;;;;;;;27.25;2.85;;;;;;;6.64;59.97;102590.38;5047599;28;20063;-74
2021/04/03 02:38:49;;;;;;;15.75;2.83;;;;;;;6.65;59.77;102592.06;5061049;28;20106;-74
2021/04/03 02:41:40;;;;;;;29.05;3.28;;;;;;;6.67;59.77;102605.88;5045266;28;20634;-74
2021/04/03 02:44:19;;;;;;;28.45;3.67;;;;;;;6.64;59.69;102607.78;5048546;28;20053;-74
2021/04/03 02:47:01;;;;;;;31.23;3.58;;;;;;;6.69;59.23;102611.00;5049707;28;20048;-74
2021/04/03 02:50:12;;;;;;;31.63;3.67;;;;;;;6.73;59.31;102604.72;5049935;28;20109;-74
2021/04/03 02:52:39;;;;;;;20.50;3.40;;;;;;;6.63;59.79;102585.25;5049523;28;20054;-74
2021/04/03 02:55:07;;;;;;;18.80;2.90;;;;;;;6.65;59.70;102599.88;5051635;28;20060;-74
2021/04/03 02:57:34;;;;;;;31.35;5.55;;;;;;;6.67;59.67;102599.81;5050291;28;20103;-73
2021/04/03 03:00:03;;;;;;;25.15;3.50;;;;;;;6.69;59.48;102585.78;5044466;28;20072;-73
2021/04/03 03:02:30;;;;;;;31.13;3.72;;;;;;;6.69;59.92;102596.19;5053929;28;20687;-73
2021/04/03 03:04:57;;;;;;;30.80;3.35;;;;;;;6.63;60.09;102588.69;5043544;28;20767;-73
2021/04/03 03:07:24;;;;;;;34.40;3.97;;;;;;;6.65;60.35;102599.06;5062687;28;20455;-73
2021/04/03 03:09:53;;;;;;;27.98;4.00;;;;;;;6.62;60.45;102594.81;5053436;28;20519;-73
2021/04/03 03:12:22;;;;;;;28.27;3.45;;;;;;;6.64;60.19;102595.56;5048633;28;20052;-73
2021/04/03 03:14:50;;;;;;;35.80;3.80;;;;;;;6.69;59.87;102593.59;5049506;28;20052;-73
2021/04/03 03:17:17;;;;;;;28.98;3.33;;;;;;;6.68;60.47;102589.31;5062542;28;20125;-73
2021/04/03 03:19:44;;;;;;;25.25;3.70;;;;;;;6.71;60.51;102590.91;5056890;28;20107;-73
2021/04/03 03:22:10;;;;;;;36.53;4.30;;;;;;;6.66;59.94;102593.75;5050751;28;20052;-73
2021/04/03 03:24:38;;;;;;;24.48;3.53;;;;;;;6.64;60.81;102582.53;5062625;28;20049;-73
2021/04/03 03:27:06;;;;;;;29.33;3.40;;;;;;;6.57;60.06;102593.38;5053754;28;20053;-73
2021/04/03 03:29:34;;;;;;;37.97;3.92;;;;;;;6.55;60.35;102588.25;5049363;28;20048;-73
2021/04/03 03:32:01;;;;;;;37.47;5.23;;;;;;;6.50;60.98;102587.63;5050582;28;20082;-73
2021/04/03 03:34:27;;;;;;;29.05;2.95;;;;;;;6.42;61.05;102592.38;5053628;28;20056;-73
2021/04/03 03:36:55;;;;;;;32.92;3.40;;;;;;;6.33;61.65;102589.31;5055489;28;20446;-73
2021/04/03 03:39:21;;;;;;;26.33;3.85;;;;;;;6.29;61.43;102592.13;5053194;28;20862;-73
2021/04/03 03:41:48;;;;;;;38.15;4.45;;;;;;;6.22;61.55;102588.97;5045881;28;21189;-73
2021/04/03 03:44:14;;;;;;;25.90;4.28;;;;;;;6.20;61.93;102598.63;5039416;28;20130;-73
2021/04/03 03:46:40;;;;;;;39.58;4.78;;;;;;;6.16;62.62;102599.69;5055067;28;20056;-73
2021/04/03 03:49:06;;;;;;;44.33;4.40;;;;;;;6.14;61.72;102604.16;5060270;28;20793;-73
2021/04/03 03:51:32;;;;;;;33.58;3.72;;;;;;;6.07;62.74;102603.56;5060596;28;20482;-73
2021/04/03 03:53:58;;;;;;;39.85;4.53;;;;;;;6.06;62.83;102612.31;5057541;28;20048;-73
2021/04/03 03:56:25;;;;;;;35.17;4.10;;;;;;;6.05;62.59;102601.97;5054858;28;20833;-73
2021/04/03 03:58:51;;;;;;;41.22;4.75;;;;;;;5.99;63.52;102604.88;5053884;28;20052;-73
2021/04/03 04:01:19;;;;;;;44.22;5.10;;;;;;;5.99;63.23;102613.53;5055890;28;20056;-73
2021/04/03 04:03:45;;;;;;;47.67;5.27;;;;;;;5.93;63.30;102611.19;5052982;28;20049;-74
2021/04/03 04:06:11;;;;;;;42.83;4.32;;;;;;;5.95;63.20;102606.78;5056851;28;20060;-73
2021/04/03 04:08:38;;;;;;;34.33;4.13;;;;;;;5.83;63.81;102605.56;5058127;28;20049;-73
2021/04/03 04:11:04;;;;;;;40.22;4.93;;;;;;;5.81;63.96;102612.59;5069282;28;20114;-74
2021/04/03 04:13:30;;;;;;;36.55;4.18;;;;;;;5.75;64.48;102620.69;5062219;28;20454;-74
2021/04/03 04:15:56;;;;;;;34.63;4.40;;;;;;;5.70;64.62;102622.66;5052213;28;20049;-74
2021/04/03 04:18:22;;;;;;;36.55;5.65;;;;;;;5.71;65.19;102627.81;5044996;28;20765;-74
2021/04/03 04:20:48;;;;;;;41.13;4.50;;;;;;;5.72;64.90;102628.63;5043279;28;20045;-74
2021/04/03 04:23:14;;;;;;;42.60;5.40;;;;;;;5.69;65.16;102634.84;5046538;28;20060;-74
2021/04/03 04:25:40;;;;;;;43.35;4.50;;;;;;;5.63;65.83;102635.13;5057010;28;20049;-74
2021/04/03 04:28:06;;;;;;;48.78;4.93;;;;;;;5.64;65.72;102629.00;5049946;28;20052;-73
2021/04/03 04:30:32;;;;;;;41.47;4.78;;;;;;;5.66;65.62;102641.94;5050160;28;20049;-74
2021/04/03 04:32:58;;;;;;;49.47;6.00;;;;;;;5.64;65.73;102642.00;5051190;28;20049;-73
2021/04/03 04:35:24;;;;;;;36.95;5.03;;;;;;;5.67;65.43;102646.25;5058384;28;20060;-73
2021/04/03 04:37:50;;;;;;;33.80;3.95;;;;;;;5.63;65.16;102645.53;5051439;28;20105;-73
2021/04/03 04:40:16;;;;;;;45.05;4.72;;;;;;;5.60;65.67;102645.66;5049075;28;20091;-73
2021/04/03 04:42:43;;;;;;;41.25;4.97;;;;;;;5.60;65.98;102656.06;5052012;28;20816;-74
2021/04/03 04:45:11;;;;;;;41.88;4.55;;;;;;;5.61;65.77;102651.75;5043432;28;20056;-73
2021/04/03 04:47:38;;;;;;;48.53;4.97;;;;;;;5.63;65.61;102655.13;5050824;28;20060;-74
2021/04/03 04:50:06;;;;;;;39.08;4.85;;;;;;;5.56;65.84;102662.34;5063297;28;20052;-74
2021/04/03 04:52:33;;;;;;;35.65;4.28;;;;;;;5.52;66.01;102664.22;5043242;28;20044;-74
2021/04/03 04:55:00;;;;;;;35.67;4.65;;;;;;;5.52;65.85;102656.41;5062142;28;20048;-74
2021/04/03 04:57:26;;;;;;;54.75;5.88;;;;;;;5.55;66.20;102658.91;5053209;28;20052;-74
2021/04/03 04:59:53;;;;;;;50.78;5.03;;;;;;;5.58;66.24;102662.28;5050101;28;20500;-74
2021/04/03 05:02:19;;;;;;;54.28;6.15;;;;;;;5.58;66.25;102664.88;5057680;28;20110;-74
2021/04/03 05:04:45;;;;;;;59.30;5.57;;;;;;;5.54;66.89;102666.78;5054329;28;20858;-74
2021/04/03 05:07:11;;;;;;;34.03;4.85;;;;;;;5.53;67.29;102670.31;5051337;28;20053;-75
2021/04/03 05:09:37;;;;;;;43.63;5.40;;;;;;;5.61;66.83;102670.81;5064501;28;20064;-75
2021/04/03 05:12:03;;;;;;;59.75;6.00;;;;;;;5.62;67.31;102677.69;5041137;28;20057;-75
2021/04/03 05:14:30;;;;;;;35.42;4.47;;;;;;;5.60;67.39;102666.50;5051645;28;20056;-74
2021/04/03 05:16:56;;;;;;;68.80;6.03;;;;;;;5.68;67.20;102664.38;5064317;28;20488;-75
2021/04/03 05:19:22;;;;;;;41.70;5.47;;;;;;;5.77;66.92;102670.13;5051654;28;20060;-74
2021/04/03 05:21:50;;;;;;;50.20;5.90;;;;;;;5.81;67.29;102669.91;5059549;28;20533;-73
2021/04/03 05:24:16;;;;;;;48.55;4.43;;;;;;;5.86;66.57;102669.66;5057305;28;20389;-73
2021/04/03 05:26:42;;;;;;;48.10;5.43;;;;;;;5.85;66.63;102674.03;5050949;28;20060;-73
2021/04/03 05:29:08;;;;;;;61.05;6.30;;;;;;;5.93;67.02;102690.16;5055854;28;20439;-74
2021/04/03 05:31:34;;;;;;;43.97;5.20;;;;;;;5.96;67.01;102686.63;5062548;28;20052;-73
2021/04/03 05:34:00;;;;;;;40.53;5.60;;;;;;;5.97;66.90;102692.66;5041128;28;20053;-73
2021/04/03 05:36:26;;;;;;;37.50;4.47;;;;;;;6.03;67.18;102703.66;5035258;28;20053;-73
2021/04/03 05:38:52;;;;;;;41.42;5.25;;;;;;;6.04;66.93;102707.94;5058144;28;20447;-72
2021/04/03 05:41:18;;;;;;;45.97;5.60;;;;;;;6.04;66.96;102707.13;5052505;28;20129;-73
2021/04/03 05:43:46;;;;;;;48.83;5.80;;;;;;;6.05;66.50;102706.19;5053956;28;21010;-73
2021/04/03 05:46:16;;;;;;;61.22;6.43;;;;;;;6.07;67.18;102707.78;5055463;28;20096;-73
2021/04/03 05:48:44;;;;;;;55.28;7.35;;;;;;;6.06;67.09;102711.34;5057351;28;20052;-73
2021/04/03 05:51:10;;;;;;;56.42;5.97;;;;;;;6.12;66.94;102712.81;5048397;28;20114;-73
2021/04/03 05:53:36;;;;;;;50.92;5.72;;;;;;;6.14;66.65;102708.38;5044299;28;20352;-73
2021/04/03 05:56:02;;;;;;;49.65;6.25;;;;;;;6.13;67.01;102710.13;5061899;28;20408;-73
2021/04/03 05:58:28;;;;;;;70.15;6.97;;;;;;;6.17;66.65;102720.41;5049318;28;20098;-73
2021/04/03 06:00:55;;;;;;;53.30;5.28;;;;;;;6.18;67.10;102722.94;5059107;28;20613;-73
2021/04/03 06:03:21;;;;;;;45.25;5.38;;;;;;;6.19;67.06;102729.00;5050254;28;20048;-73
2021/04/03 06:05:49;;;;;;;51.80;6.68;;;;;;;6.21;66.87;102728.00;5054032;28;20571;-73
2021/04/03 06:08:15;;;;;;;57.35;6.20;;;;;;;6.23;66.58;102739.19;5048873;28;20056;-73
2021/04/03 06:10:41;;;;;;;50.13;7.38;;;;;;;6.23;67.03;102743.56;5057695;28;20052;-73
2021/04/03 06:13:18;;;;;;;55.45;6.43;;;;;;;6.24;66.75;102735.69;5049175;28;20090;-73
2021/04/03 06:15:44;;;;;;;46.10;6.80;;;;;;;6.27;66.76;102738.16;5053324;28;20052;-73
2021/04/03 06:18:12;;;;;;;43.45;5.47;;;;;;;6.33;66.67;102750.91;5059052;28;20105;-73
2021/04/03 06:20:42;;;;;;;49.17;6.55;;;;;;;6.34;67.16;102741.31;5054072;28;20044;-73
2021/04/03 06:23:10;;;;;;;57.28;6.93;;;;;;;6.40;66.66;102756.66;5060564;28;20079;-73
2021/04/03 06:25:55;;;;;;;43.83;5.60;;;;;;;6.50;66.49;102759.69;5046365;28;20110;-73
2021/04/03 06:28:29;;;;;;;41.88;6.65;;;;;;;6.58;66.24;102764.53;5045040;28;20414;-73
2021/04/03 06:31:20;;;;;;;43.22;5.95;;;;;;;6.57;66.33;102750.66;5041260;28;20041;-73
2021/04/03 06:33:47;;;;;;;47.88;6.65;;;;;;;6.63;66.75;102758.19;5049244;28;20118;-73
2021/04/03 06:36:15;;;;;;;48.28;6.00;;;;;;;6.66;66.56;102763.25;5059253;28;20561;-74
2021/04/03 06:38:42;;;;;;;48.72;6.22;;;;;;;6.68;65.84;102776.22;5044675;28;20048;-74
2021/04/03 06:41:23;;;;;;;55.15;6.57;;;;;;;6.67;65.86;102780.59;5051770;28;20052;-74
2021/04/03 06:44:10;;;;;;;52.97;6.13;;;;;;;6.71;66.02;102773.47;5048412;28;20485;-73
2021/04/03 06:46:38;;;;;;;50.88;6.60;;;;;;;6.69;65.50;102776.16;5058504;28;20052;-73
2021/04/03 06:49:05;;;;;;;46.67;6.50;;;;;;;6.73;65.87;102777.69;5054324;28;20052;-73
2021/04/03 06:51:32;;;;;;;40.78;5.10;;;;;;;6.78;65.71;102779.22;5057841;28;20053;-74
2021/04/03 06:54:00;;;;;;;57.65;7.07;;;;;;;6.82;65.08;102778.16;5053516;28;20051;-74
2021/04/03 06:56:30;;;;;;;40.58;5.78;;;;;;;6.80;65.38;102777.41;5060345;28;20060;-75
2021/04/03 06:59:07;;;;;;;52.53;5.28;;;;;;;6.81;65.41;102782.53;5048099;28;20060;-75
2021/04/03 07:01:51;;;;;;;43.08;6.80;;;;;;;6.83;65.40;102795.53;5058347;28;20044;-75
2021/04/03 07:04:28;;;;;;;53.13;7.55;;;;;;;6.86;65.16;102800.56;5059238;28;20045;-75
2021/04/03 07:06:56;;;;;;;42.22;4.90;;;;;;;6.93;65.37;102802.81;5056584;28;20048;-75
2021/04/03 07:09:23;;;;;;;49.45;6.25;;;;;;;6.98;65.16;102800.00;5061044;28;20466;-74
2021/04/03 07:11:51;;;;;;;47.53;7.25;;;;;;;7.01;64.33;102801.63;5050075;28;20067;-73
2021/04/03 07:14:19;;;;;;;37.83;5.30;;;;;;;7.08;64.58;102809.06;5056259;28;20118;-73
2021/04/03 07:16:47;;;;;;;54.65;6.82;;;;;;;7.11;64.05;102808.94;5055820;28;20060;-73
2021/04/03 07:19:14;;;;;;;45.45;5.63;;;;;;;7.13;64.86;102804.47;5062885;28;20051;-73
2021/04/03 07:21:42;;;;;;;41.10;5.63;;;;;;;7.20;64.87;102806.78;5060532;28;20138;-74
2021/04/03 07:24:11;;;;;;;48.47;6.72;;;;;;;7.23;64.02;102815.31;5062889;28;20052;-74
2021/04/03 07:26:41;;;;;;;44.45;6.65;;;;;;;7.25;63.95;102818.69;5053693;28;20056;-74
2021/04/03 07:29:07;;;;;;;47.35;6.25;;;;;;;7.27;64.05;102818.59;5052565;28;20052;-74
2021/04/03 07:31:44;;;;;;;41.78;6.05;;;;;;;7.32;63.90;102822.66;5064735;28;20134;-75
2021/04/03 07:34:10;;;;;;;41.75;5.00;;;;;;;7.35;63.22;102823.44;5058048;28;20060;-74
2021/04/03 07:36:38;;;;;;;37.97;5.97;;;;;;;7.33;63.85;102836.56;5051940;28;20514;-74
2021/04/03 07:39:07;;;;;;;37.08;5.50;;;;;;;7.32;63.66;102830.50;5043720;28;20069;-74
2021/04/03 07:41:37;;;;;;;;;;;;;;;7.36;63.89;102831.19;5043162;28;20601;-74
2021/04/03 07:44:13;;;;;;;40.78;5.95;;;;;;;7.43;63.82;102831.72;5050863;28;20329;-73
2021/04/03 07:46:44;;;;;;;28.75;5.20;;;;;;;7.58;63.72;102833.56;5051853;28;20542;-73
2021/04/03 07:49:30;;;;;;;40.67;5.38;;;;;;;7.62;62.44;102829.03;5053909;28;20056;-73
2021/04/03 07:51:59;;;;;;;40.88;6.53;;;;;;;7.66;62.21;102838.41;5056966;28;20052;-74
2021/04/03 07:54:27;;;;;;;39.88;6.32;;;;;;;7.68;62.54;102836.56;5049949;28;20499;-74
2021/04/03 07:57:01;;;;;;;46.92;5.65;;;;;;;7.81;62.56;102836.78;5057143;28;20045;-75
2021/04/03 07:59:43;;;;;;;48.22;5.85;;;;;;;7.86;62.46;102840.00;5063842;28;20593;-74
2021/04/03 08:02:24;;;;;;;34.85;6.32;;;;;;;7.89;61.73;102848.53;5057285;28;20056;-74
2021/04/03 08:04:51;;;;;;;48.78;5.57;;;;;;;7.91;61.54;102846.69;5059942;28;20067;-74
2021/04/03 08:07:19;;;;;;;50.05;6.80;;;;;;;7.90;61.58;102842.38;5054956;28;20053;-74
2021/04/03 08:09:46;;;;;;;33.08;6.43;;;;;;;7.96;61.74;102850.81;5060491;28;20484;-75
2021/04/03 08:12:12;;;;;;;34.80;5.80;;;;;;;8.00;60.82;102855.81;5066782;28;20488;-76
2021/04/03 08:14:43;;;;;;;39.63;5.38;;;;;;;8.06;61.42;102862.50;5058500;28;20776;-76
2021/04/03 08:17:18;;;;;;;37.88;5.25;;;;;;;8.11;60.51;102865.72;5064775;28;20071;-75
2021/04/03 08:19:45;;;;;;;35.72;6.10;;;;;;;8.14;60.72;102862.94;5055644;28;20112;-75
2021/04/03 08:22:11;;;;;;;48.67;8.07;;;;;;;8.32;61.15;102858.50;5058774;28;20052;-75
2021/04/03 08:24:37;;;;;;;35.75;5.35;;;;;;;8.44;60.56;102857.88;5053771;28;20144;-75
2021/04/03 08:27:03;;;;;;;44.97;5.63;;;;;;;8.56;60.77;102864.22;5059884;28;20769;-75
2021/04/03 08:29:32;;;;;;;33.55;4.55;;;;;;;8.76;60.17;102872.75;5049257;28;20052;-75
2021/04/03 08:31:59;;;;;;;34.20;4.60;;;;;;;8.90;60.02;102878.09;5052063;28;20045;-75
2021/04/03 08:34:26;;;;;;;43.55;5.90;;;;;;;9.02;59.48;102874.78;5059591;28;20118;-75
2021/04/03 08:36:53;;;;;;;33.22;4.60;;;;;;;9.03;59.00;102873.00;5052504;28;20048;-75
2021/04/03 08:39:22;;;;;;;36.28;5.68;;;;;;;9.05;58.74;102871.97;5057693;28;20869;-76
2021/04/03 08:41:50;;;;;;;41.03;4.40;;;;;;;9.08;58.29;102873.59;5058293;28;20133;-73
2021/04/03 08:44:22;;;;;;;35.58;5.90;;;;;;;8.96;58.40;102863.78;5061188;28;20122;-75
2021/04/03 08:47:03;;;;;;;41.72;5.80;;;;;;;8.90;58.04;102859.78;5058726;28;20060;-77
2021/04/03 08:49:34;;;;;;;41.27;4.87;;;;;;;8.95;58.16;102876.03;5048001;28;20105;-76
2021/04/03 08:52:02;;;;;;;26.77;4.55;;;;;;;9.10;58.46;102872.56;5036294;28;20056;-76
2021/04/03 08:54:39;;;;;;;40.85;5.47;;;;;;;9.46;57.73;102873.16;5058614;28;20063;-76
2021/04/03 08:57:29;;;;;;;36.97;5.75;;;;;;;9.74;56.93;102869.81;5047875;28;20055;-75
2021/04/03 08:59:59;;;;;;;38.42;6.00;;;;;;;10.01;56.93;102866.44;5046690;28;20052;-75
2021/04/03 09:02:26;;;;;;;44.20;6.60;;;;;;;10.35;56.10;102875.75;5057794;28;20585;-75
2021/04/03 09:04:52;;;;;;;29.73;5.07;;;;;;;10.56;55.06;102860.44;5040902;28;20801;-77
2021/04/03 09:07:35;;;;;;;44.22;7.20;;;;;;;10.83;54.26;102860.47;5063781;28;20092;-76
2021/04/03 09:10:04;;;;;;;33.88;6.20;;;;;;;11.00;52.86;102861.19;5046441;28;20072;-76
2021/04/03 09:12:31;;;;;;;37.83;6.97;;;;;;;11.25;52.87;102863.91;5043021;28;20052;-76
2021/04/03 09:14:57;;;;;;;43.47;5.88;;;;;;;11.28;51.90;102865.47;5036864;28;20425;-76
2021/04/03 09:17:24;;;;;;;31.65;4.75;;;;;;;11.33;52.41;102852.91;5059873;28;20048;-74
2021/04/03 09:20:03;;;;;;;38.45;5.72;;;;;;;11.17;51.72;102853.06;5045632;28;20467;-76
2021/04/03 09:22:36;;;;;;;30.85;5.15;;;;;;;11.01;51.06;102850.56;5058186;28;20113;-77
2021/04/03 09:25:07;;;;;;;42.28;6.35;;;;;;;10.83;51.60;102857.03;5060533;28;20048;-77
2021/04/03 09:27:33;;;;;;;31.15;5.20;;;;;;;10.77;51.98;102862.66;5057655;28;20052;-76
2021/04/03 09:30:07;;;;;;;32.65;5.82;;;;;;;10.65;51.97;102865.13;5064054;28;20055;-76
2021/04/03 09:32:44;;;;;;;29.20;6.05;;;;;;;10.85;51.07;102853.34;5052958;28;20687;-76
2021/04/03 09:35:13;;;;;;;29.65;4.82;;;;;;;11.04;51.40;102853.00;5060283;28;20052;-74
2021/04/03 09:37:39;;;;;;;;;;;;;;;11.28;50.86;102854.97;5039839;28;20061;-75
2021/04/03 09:40:07;;;;;;;38.75;5.38;;;;;;;11.43;49.89;102855.75;5057784;28;20161;-77
2021/04/03 09:42:34;;;;;;;37.55;4.20;;;;;;;11.36;50.26;102854.47;5064611;28;20060;-77
2021/04/03 09:45:05;;;;;;;38.65;5.40;;;;;;;11.69;50.52;102854.00;5055644;28;20438;-76
2021/04/03 09:47:31;;;;;;;38.25;6.25;;;;;;;11.98;49.70;102862.56;5041696;28;20052;-77
2021/04/03 09:49:57;;;;;;;25.58;4.35;;;;;;;12.26;48.83;102864.09;5058701;28;20462;-77
2021/04/03 09:52:25;;;;;;;28.48;4.95;;;;;;;12.09;47.71;102856.53;5065246;28;20052;-77
2021/04/03 09:54:51;;;;;;;33.05;5.13;;;;;;;11.82;47.51;102854.84;5061558;28;20049;-77
2021/04/03 09:57:17;;;;;;;29.15;4.55;;;;;;;11.56;48.72;102848.72;5051905;28;20048;-77
2021/04/03 09:59:44;;;;;;;31.50;4.47;;;;;;;11.44;48.64;102858.25;5065356;28;20165;-77
2021/04/03 10:02:11;;;;;;;33.85;5.30;;;;;;;11.67;48.62;102861.97;5044994;28;20138;-77
2021/04/03 10:04:38;;;;;;;32.05;4.95;;;;;;;11.74;48.58;102861.56;5065624;28;20064;-77
2021/04/03 10:07:04;;;;;;;37.97;5.15;;;;;;;11.68;47.56;102849.66;5046465;28;20056;-78
2021/04/03 10:09:31;;;;;;;28.85;4.53;;;;;;;11.73;48.46;102865.16;5057265;28;20056;-76
2021/04/03 10:11:58;;;;;;;28.48;5.28;;;;;;;11.95;48.99;102854.03;5050056;28;20056;-75
2021/04/03 10:14:24;;;;;;;29.20;5.25;;;;;;;12.52;47.66;102868.47;5059681;28;20403;-76
2021/04/03 10:16:51;;;;;;;26.30;5.05;;;;;;;12.25;46.84;102874.72;5047308;28;20053;-76
2021/04/03 10:19:17;;;;;;;26.67;4.22;;;;;;;11.91;46.55;102865.72;5053552;28;20130;-73
2021/04/03 10:21:43;;;;;;;32.42;6.03;;;;;;;11.83;46.85;102853.88;5060345;28;20060;-75
2021/04/03 10:24:09;;;;;;;22.60;4.30;;;;;;;11.87;48.30;102871.13;5041019;28;20431;-74
2021/04/03 10:26:36;;;;;;;30.92;4.95;;;;;;;11.74;47.60;102866.81;5055125;28;20060;-74
2021/04/03 10:29:03;;;;;;;35.40;5.22;;;;;;;12.21;47.28;102874.13;5036619;28;20060;-74
2021/04/03 10:31:29;;;;;;;35.33;5.45;;;;;;;12.41;46.71;102867.44;5053007;28;20082;-74
2021/04/03 10:33:55;;;;;;;25.98;4.50;;;;;;;12.18;46.17;102871.69;5061551;28;20118;-74
2021/04/03 10:36:22;;;;;;;27.00;4.15;;;;;;;12.07;46.51;102864.56;5057795;28;20060;-75
2021/04/03 10:38:48;;;;;;;24.00;4.38;;;;;;;12.01;46.01;102872.84;5061277;28;20052;-76
2021/04/03 10:41:16;;;;;;;28.02;5.68;;;;;;;12.01;46.58;102869.38;5049917;28;20450;-75
2021/04/03 10:43:42;;;;;;;25.98;3.90;;;;;;;12.42;45.78;102865.66;5050737;28;20052;-75
2021/04/03 10:46:08;;;;;;;27.20;5.10;;;;;;;12.74;45.54;102862.50;5055496;28;20059;-74
2021/04/03 10:48:35;;;;;;;27.63;5.07;;;;;;;12.79;45.53;102861.22;5047132;28;20064;-75
2021/04/03 10:51:02;;;;;;;24.08;5.53;;;;;;;13.13;45.84;102861.41;5057491;28;20040;-75
2021/04/03 10:53:28;;;;;;;17.38;4.18;;;;;;;13.10;44.52;102843.19;5055395;28;20115;-75
2021/04/03 10:55:54;;;;;;;28.17;4.85;;;;;;;13.18;44.31;102859.25;5056956;28;20190;-75
2021/04/03 10:58:20;;;;;;;29.40;5.03;;;;;;;13.45;43.37;102856.41;5052894;28;20557;-75
2021/04/03 11:00:47;;;;;;;27.90;4.85;;;;;;;13.60;43.32;102859.69;5066930;28;20503;-75
2021/04/03 11:03:13;;;;;;;25.58;3.92;;;;;;;13.91;42.79;102851.19;5059406;28;20055;-75
2021/04/03 11:05:39;;;;;;;29.17;4.55;;;;;;;13.97;39.94;102856.84;5054564;28;20948;-77
2021/04/03 11:08:05;;;;;;;22.20;4.65;;;;;;;14.09;41.37;102843.66;5039294;28;20419;-74
2021/04/03 11:10:31;;;;;;;26.65;5.32;;;;;;;14.49;41.16;102849.25;5060271;28;20051;-75
2021/04/03 11:12:58;;;;;;;20.95;5.32;;;;;;;14.79;39.59;102838.03;5053863;28;20056;-74
2021/04/03 11:15:25;;;;;;;19.13;3.88;;;;;;;15.12;38.80;102848.63;5058288;28;20051;-75
2021/04/03 11:17:54;;;;;;;22.48;4.53;;;;;;;15.54;39.21;102853.94;5066875;28;20060;-75
2021/04/03 11:20:20;;;;;;;24.02;4.40;;;;;;;15.73;38.64;102853.25;5059225;28;20062;-75
2021/04/03 11:22:47;;;;;;;26.30;5.18;;;;;;;15.46;38.05;102845.81;5055173;28;20487;-74
2021/04/03 11:25:14;;;;;;;24.92;4.25;;;;;;;15.22;38.93;102839.78;5056600;28;20162;-75
2021/04/03 11:27:40;;;;;;;26.67;4.80;;;;;;;14.88;38.86;102840.91;5048068;28;20052;-74
2021/04/03 11:30:16;;;;;;;20.55;4.55;;;;;;;14.59;40.32;102821.19;5056410;28;20057;-74
2021/04/03 11:32:50;;;;;;;25.65;5.10;;;;;;;14.44;40.40;102835.56;5059011;28;20059;-75